• Join FlightAware (Why Join?)
  • Login
  • US Flag 
01:07AM EDT


 

Airport Tracker/Info


-or-


 

Live Flight TrackerFlight Track Log ✈ RPA3247 ✈ 21-Aug-2013 ✈ KBTV - KDCA

Flight Track Log - Related Links

Times and Time Zones

All times are in EDT time to prevent confusion due to time zone crossing. See the RPA3247 flight status page for this flight to view local times or setup timezone preferences in your user account.

Time Position Orientation Groundspeed Altitude Reporting Facility
EDT Latitude Longitude Course Direction KTS MPH feet Rate Location/Type
05:49PM 44.3597 -73.0700 198° South 219 252 5,200  Level Boston Center
05:50PM 44.2992 -73.0956 197° South 219 252 7,900 2,160 Climbing Boston Center
05:51PM 44.0279 -73.3130 194° South  Level FlightAware Approximate
05:51PM 44.2300 -73.1267 198° South 242 278 9,600  Level Boston Center
05:52PM 43.9171 -73.3499 193° South  Level FlightAware Approximate
05:52PM 44.1528 -73.1633 199° South 278 320 11,200  Level Boston Center
05:53PM 43.8071 -73.3912 195° South  Level FlightAware Approximate
05:53PM 44.0650 -73.2000 197° South 316 364 13,100  Level Boston Center
05:54PM 43.6971 -73.4324 195° South  Level FlightAware Approximate
05:54PM 43.9733 -73.2131 186° South 336 387 14,900  Level Boston Center
05:55PM 43.5881 -73.4782 198° South  Level FlightAware Approximate
05:55PM 43.8794 -73.2264 186° South 343 395 16,800  Level Boston Center
05:56PM 43.7814 -73.2336 183° South 353 406 18,300 1,560 Climbing Boston Center
05:57PM 43.6900 -73.2125 171° South 362 417 20,000 1,620 Climbing Boston Center
05:58PM 43.5794 -73.1911 172° South 368 423 21,600 1,380 Climbing Boston Center
05:59PM 43.4794 -73.2097 188° South 368 423 22,800 1,080 Climbing Boston Center
06:00PM 43.3897 -73.2286 189° South 368 423 23,800 1,200 Climbing Boston Center
06:01PM 43.2708 -73.2469 186° South 382 440 25,200 1,260 Climbing Boston Center
06:02PM 43.1622 -73.2683 188° South 394 453 26,400 1,020 Climbing Boston Center
06:03PM 43.0517 -73.2867 187° South 404 465 27,400 780 Climbing Boston Center
06:04PM 42.9369 -73.3078 188° South 409 471 28,000 300 Climbing Boston Center
06:05PM 42.8158 -73.3289 187° South 430 495 28,000  Level Boston Center
06:06PM 42.6947 -73.3497 187° South 436 502 28,000  Level Boston Center
06:07PM 42.5717 -73.3706 187° South 442 509 28,000  Level Boston Center
06:08PM 42.4486 -73.3939 188° South 447 514 28,000  Level Boston Center
06:09PM 42.3506 -73.4092 187° South 447 514 28,000  Level Boston Center
06:10PM 42.2064 -73.4294 186° South 442 509 28,000  Level Boston Center
06:11PM 42.1186 -73.4756 185° South 442 509 28,000  Level Boston Center
06:12PM 42.0893 -73.4434 185° South  Level FlightAware Approximate
06:12PM 41.9883 -73.5686 208° Southwest 442 509 28,000  Level Boston Center
06:13PM 41.8833 -73.6447 208° Southwest 442 509 28,000  Level Boston Center
06:15PM 41.6897 -73.7767 207° Southwest 432 497 28,000  Level New York Center
06:17PM 41.5950 -73.8920 222° Southwest  Level Estimated
06:17PM 41.4775 -73.9278 222° Southwest 433 498 28,000  Level New York Center
06:18PM 41.3714 -74.0028 208° Southwest 438 504 28,000  Level New York Center
06:19PM 41.2675 -74.0753 208° Southwest 438 504 28,000  Level New York Center
06:20PM 41.1547 -74.1522 207° Southwest 438 504 28,000  Level New York Center
06:21PM 41.0361 -74.2289 206° Southwest 443 510 28,000 -3,000 Level New York Center
06:22PM 40.9358 -74.3033 209° Southwest 435 501 22,000 -1,020 Descending New York Center
06:23PM 40.8425 -74.3644 206° Southwest 407 468 26,000 1,980 Climbing New York Center
06:24PM 40.7550 -74.4283 209° Southwest 381 438 26,000  Level New York Center
06:25PM 40.6656 -74.4892 207° Southwest 371 427 26,000 -480 Level New York Center
06:26PM 40.5758 -74.5553 209° Southwest 371 427 25,100 -1,380 Descending New York Center
06:27PM 40.5247 -74.6561 236° Southwest 345 397 23,300 -1,560 Descending New York Center
06:28PM 40.5061 -74.7806 259° West 336 387 22,000 -660 Descending New York Center
06:29PM 40.4458 -74.8944 235° Southwest 357 411 22,000  Level New York Center
06:30PM 40.3842 -74.9833 228° Southwest 370 426 22,000  Level New York Center
06:31PM 40.3181 -75.0828 229° Southwest 370 426 22,000  Level New York Center
06:32PM 40.2519 -75.1819 229° Southwest 370 426 22,000  Level New York Center
06:33PM 40.1833 -75.2864 229° Southwest 370 426 22,000  Level New York Center
06:34PM 40.1169 -75.3853 229° Southwest 375 432 22,000  Level New York Center
06:35PM 40.0486 -75.4839 228° Southwest 375 432 22,000  Level New York Center
06:36PM 39.9844 -75.5769 228° Southwest 370 426 22,000 -1,020 Level New York Center
06:37PM 39.9242 -75.6675 229° Southwest 349 402 20,000 -1,980 Descending New York Center
06:38PM 39.8703 -75.7639 234° Southwest 344 396 18,100 -1,920 Descending New York Center
06:40PM 39.7833 -75.9667 241° Southwest 301 346 14,000 -1,920 Descending Potomac TRACON
06:41PM 39.7833 -76.0833 270° West 296 341 12,200 -1,080 Descending Potomac TRACON
06:42PM 39.7833 -76.1833 270° West 288 331 11,900 -180 Descending Potomac TRACON
06:43PM 39.7167 -76.2667 224° Southwest 296 341 11,900  Level Potomac TRACON
06:44PM 39.6500 -76.3167 210° Southwest 297 342 11,900  Level Potomac TRACON
06:45PM 39.5667 -76.3667 205° Southwest 297 342 11,900  Level Potomac TRACON
06:46PM 39.5000 -76.4167 210° Southwest 297 342 11,900  Level Potomac TRACON
06:47PM 39.4333 -76.4667 210° Southwest 292 336 11,900  Level Potomac TRACON
06:48PM 39.3667 -76.5167 210° Southwest 293 337 11,900  Level Potomac TRACON
06:49PM 39.3000 -76.5667 210° Southwest 294 338 11,900 -480 Level Potomac TRACON
06:50PM 39.2167 -76.6167 205° Southwest 294 338 11,000 -1,020 Descending Potomac TRACON
06:51PM 39.1500 -76.6833 218° Southwest 284 327 9,900 -600 Descending Potomac TRACON
06:52PM 39.1000 -76.7500 226° Southwest 284 327 9,900 -300 Level Potomac TRACON
06:53PM 39.0500 -76.8167 226° Southwest 277 319 9,300 -1,200 Descending Potomac TRACON
06:54PM 38.9833 -76.8833 218° Southwest 272 313 7,500 -1,440 Descending Potomac TRACON
06:55PM 38.9667 -76.9667 256° West 246 283 6,300 -840 Descending Potomac TRACON
06:56PM 38.9833 -77.0333 288° West 208 239 5,900 -240 Descending Potomac TRACON
06:57PM 39.0333 -77.0833 322° Northwest 210 242 5,900  Level Potomac TRACON
06:58PM 39.0667 -77.1333 311° West 208 239 5,900 -120 Level Potomac TRACON
06:59PM 39.1000 -77.2000 303° West 215 247 5,700 -660 Descending Potomac TRACON
07:00PM 39.0667 -77.2500 229° Southwest 184 212 4,600 -1,260 Descending Potomac TRACON
07:01PM 39.0333 -77.2333 159° South 173 199 3,200 -840 Descending Potomac TRACON
07:02PM 38.9833 -77.2000 153° Southeast 176 203 3,000 -360 Descending Potomac TRACON
07:03PM 38.9667 -77.1500 113° Southeast 178 205 2,600 -660 Descending Potomac TRACON
07:04PM 38.9167 -77.1167 153° Southeast 169 194 1,800 -900 Descending Potomac TRACON
07:05PM 38.9000 -77.0667 113° Southeast 147 169 900 -780 Descending Potomac TRACON
07:06PM 38.8667 -77.0333 142° Southeast 134 154 300 -600 Descending Potomac TRACON
07:08PM 38.8500 -77.0333 160° South  Level FlightAware Approximate